Station: EBLG - 24/04/2019 14:50Z (il y a 22 minutes)
EBLG 241450Z 19017KT CAVOK 21/06 Q0999 TEMPO 18018G30KT 4000 SHRA
Vent du 190º - 17 kt
Visibilité > 10 km et plafond haut ou pas de nuages significatifs
Température: +21ºC - Point de rosée: +06ºC - QNH: 999 hPa
Temporairement
Vent du 180º - 18 kt - rafales 30 kt
Visibilité: 4000 m - averses de pluie